Time;durP1;ratioP1;P1;durP2;ratioP2;P2;SDS_P1;SDS_P2;PMS_P1;PMS_P2;Temp;Humidity;BMP_temperature;BMP_pressure;BME280_temperature;BME280_humidity;BME280_pressure;Samples;Min_cycle;Max_cycle;Signal;HPM_P1;HPM_P2
2023/03/05 00:01:28;;;;;;;0.00;0.00;;;3.80;99.90;;;;;;5023554;28;20471;-77
2023/03/05 00:03:55;;;;;;;0.00;0.00;;;3.90;99.90;;;;;;5020386;28;20028;-76
2023/03/05 00:06:23;;;;;;;0.00;0.00;;;3.90;99.90;;;;;;5020184;28;20087;-77
2023/03/05 00:08:50;;;;;;;0.00;0.00;;;3.90;99.90;;;;;;5017843;28;20123;-77
2023/03/05 00:11:16;;;;;;;0.00;0.00;;;3.90;99.90;;;;;;5022438;28;20075;-77
2023/03/05 00:13:52;;;;;;;0.00;0.00;;;3.80;99.90;;;;;;5024510;28;20375;-76
2023/03/05 00:16:18;;;;;;;0.00;0.00;;;3.80;99.90;;;;;;5018087;28;20056;-77
2023/03/05 00:18:45;;;;;;;0.00;0.00;;;3.80;99.90;;;;;;5028421;28;20138;-77
2023/03/05 00:21:22;;;;;;;0.00;0.00;;;3.70;99.90;;;;;;5023903;28;20529;-77
2023/03/05 00:23:51;;;;;;;0.00;0.00;;;3.70;99.90;;;;;;5019223;28;20033;-77
2023/03/05 00:26:18;;;;;;;0.00;0.00;;;3.80;99.90;;;;;;5027109;28;20034;-76
2023/03/05 00:28:51;;;;;;;0.00;0.00;;;3.80;99.90;;;;;;5022796;28;20033;-76
2023/03/05 00:31:25;;;;;;;0.00;0.00;;;3.80;99.90;;;;;;5024459;28;20050;-77
2023/03/05 00:34:01;;;;;;;0.00;0.00;;;3.80;99.90;;;;;;5021976;28;20394;-77
2023/03/05 00:36:31;;;;;;;0.00;0.00;;;3.80;99.90;;;;;;5020332;28;20025;-77
2023/03/05 00:38:58;;;;;;;0.10;0.10;;;3.80;99.90;;;;;;5019777;28;20024;-77
2023/03/05 00:41:28;;;;;;;0.00;0.00;;;3.80;99.90;;;;;;5019494;28;20018;-77
2023/03/05 00:44:05;;;;;;;0.00;0.00;;;3.80;99.90;;;;;;5029372;28;20074;-76
2023/03/05 00:46:31;;;;;;;0.00;0.00;;;3.80;99.90;;;;;;5022534;28;20920;-77
2023/03/05 00:48:56;;;;;;;0.00;0.00;;;3.80;99.90;;;;;;5026870;28;20045;-77
2023/03/05 00:51:24;;;;;;;0.00;0.00;;;3.80;99.90;;;;;;5025892;28;20033;-77
2023/03/05 00:53:58;;;;;;;0.00;0.00;;;3.70;99.90;;;;;;5022139;28;20436;-77
2023/03/05 00:56:25;;;;;;;0.00;0.00;;;3.70;99.90;;;;;;5022353;28;20018;-76
2023/03/05 00:58:52;;;;;;;0.08;0.08;;;3.80;99.90;;;;;;5020262;28;21367;-77
2023/03/05 01:01:19;;;;;;;0.00;0.00;;;3.70;99.90;;;;;;5026915;28;20105;-77
2023/03/05 01:03:46;;;;;;;;;;;3.80;99.90;;;;;;5023441;28;20026;-78
2023/03/05 01:06:17;;;;;;;0.00;0.00;;;3.70;99.90;;;;;;5020061;28;19986;-77
2023/03/05 01:08:44;;;;;;;0.00;0.00;;;3.80;99.90;;;;;;5020565;28;20036;-76
2023/03/05 01:11:10;;;;;;;;;;;3.80;99.90;;;;;;5019066;28;20025;-77
2023/03/05 01:13:42;;;;;;;0.00;0.00;;;3.80;99.90;;;;;;5020775;28;20649;-77
2023/03/05 01:16:09;;;;;;;0.00;0.00;;;3.80;99.90;;;;;;5024081;28;20068;-76
2023/03/05 01:18:44;;;;;;;0.00;0.00;;;3.80;99.90;;;;;;5026236;28;20430;-76
2023/03/05 01:21:13;;;;;;;0.00;0.00;;;3.70;99.90;;;;;;5027631;28;20097;-77
2023/03/05 01:23:43;;;;;;;0.00;0.00;;;3.70;99.90;;;;;;5033161;28;20113;-77
2023/03/05 01:26:09;;;;;;;0.00;0.00;;;3.70;99.90;;;;;;5032632;28;20022;-77
2023/03/05 01:28:40;;;;;;;0.00;0.00;;;3.70;99.90;;;;;;5027198;28;20087;-77
2023/03/05 01:31:11;;;;;;;0.00;0.00;;;3.80;99.90;;;;;;5028571;28;20028;-77
2023/03/05 01:33:38;;;;;;;0.00;0.00;;;3.80;99.90;;;;;;5028346;28;20021;-77
2023/03/05 01:36:13;;;;;;;0.00;0.00;;;3.70;99.90;;;;;;5031881;28;20029;-77
2023/03/05 01:38:44;;;;;;;0.00;0.00;;;3.70;99.90;;;;;;5023260;28;20033;-77
2023/03/05 01:41:20;;;;;;;0.00;0.00;;;3.80;99.90;;;;;;5029580;28;20075;-78
2023/03/05 01:43:48;;;;;;;0.00;0.00;;;3.70;99.90;;;;;;5029310;28;20638;-77
2023/03/05 01:46:37;;;;;;;0.00;0.00;;;3.70;99.90;;;;;;5025934;28;20037;-77
2023/03/05 01:49:23;;;;;;;0.00;0.00;;;3.70;99.90;;;;;;5027398;28;20116;-77
2023/03/05 01:52:07;;;;;;;0.00;0.00;;;3.70;99.90;;;;;;5023766;28;20029;-77
2023/03/05 01:54:50;;;;;;;0.00;0.00;;;3.70;99.90;;;;;;5022913;28;20025;-77
2023/03/05 01:57:27;;;;;;;0.00;0.00;;;3.80;99.90;;;;;;5023369;28;20023;-77
2023/03/05 02:00:11;;;;;;;0.20;0.20;;;3.70;99.90;;;;;;5028579;28;20607;-77
2023/03/05 02:02:38;;;;;;;0.00;0.00;;;3.80;99.90;;;;;;5024871;28;20025;-76
2023/03/05 02:05:09;;;;;;;0.00;0.00;;;3.70;99.90;;;;;;5026050;28;20025;-77
2023/03/05 02:07:39;;;;;;;0.00;0.00;;;3.70;99.90;;;;;;5030069;28;20097;-76
2023/03/05 02:10:24;;;;;;;0.00;0.00;;;3.70;99.90;;;;;;5027361;28;20071;-77
2023/03/05 02:13:01;;;;;;;0.00;0.00;;;3.70;99.90;;;;;;5028170;28;20060;-77
2023/03/05 02:15:38;;;;;;;0.00;0.00;;;3.80;99.90;;;;;;5025614;28;20024;-77
2023/03/05 02:18:06;;;;;;;0.00;0.00;;;3.70;99.90;;;;;;5020258;28;20025;-77
2023/03/05 02:20:51;;;;;;;0.00;0.00;;;3.70;99.90;;;;;;5024456;28;20049;-77
2023/03/05 02:23:38;;;;;;;0.00;0.00;;;3.70;99.90;;;;;;5029658;28;20063;-77
2023/03/05 02:26:07;;;;;;;0.00;0.00;;;3.70;99.90;;;;;;5024155;28;20034;-77
2023/03/05 02:28:44;;;;;;;0.00;0.00;;;3.70;99.90;;;;;;5027082;28;20736;-76
2023/03/05 02:31:22;;;;;;;0.00;0.00;;;3.80;99.90;;;;;;5025084;28;20037;-77
2023/03/05 02:33:48;;;;;;;0.10;0.10;;;3.80;99.90;;;;;;5028385;28;20049;-77
2023/03/05 02:36:15;;;;;;;0.00;0.00;;;3.80;99.90;;;;;;5021739;28;20025;-76
2023/03/05 02:38:43;;;;;;;1.75;1.65;;;3.70;99.90;;;;;;5032814;28;20055;-77
2023/03/05 02:41:10;;;;;;;0.00;0.00;;;3.70;99.90;;;;;;5022993;28;20022;-77
2023/03/05 02:43:40;;;;;;;0.00;0.00;;;3.70;99.90;;;;;;5026087;28;20022;-77
2023/03/05 02:46:09;;;;;;;0.00;0.00;;;3.70;99.90;;;;;;5030668;28;20733;-77
2023/03/05 02:48:40;;;;;;;0.00;0.00;;;3.70;99.90;;;;;;5028740;28;20022;-77
2023/03/05 02:51:06;;;;;;;0.00;0.00;;;3.70;99.90;;;;;;5023187;28;20017;-77
2023/03/05 02:53:32;;;;;;;0.00;0.00;;;3.70;99.90;;;;;;5031347;28;20025;-76
2023/03/05 02:56:00;;;;;;;0.00;0.00;;;3.70;99.90;;;;;;5029321;28;20083;-77
2023/03/05 02:58:35;;;;;;;0.00;0.00;;;3.70;99.90;;;;;;5027421;28;20040;-77
2023/03/05 03:01:02;;;;;;;0.00;0.00;;;3.70;99.90;;;;;;5021619;28;20018;-76
2023/03/05 03:03:37;;;;;;;;;;;3.70;99.90;;;;;;5029606;28;20390;-76
2023/03/05 03:06:03;;;;;;;0.00;0.00;;;3.70;99.90;;;;;;5028387;28;19913;-77
2023/03/05 03:08:37;;;;;;;0.00;0.00;;;3.70;99.90;;;;;;5025782;28;20021;-77
2023/03/05 03:11:11;;;;;;;0.00;0.00;;;3.70;99.90;;;;;;5023140;28;20486;-76
2023/03/05 03:13:47;;;;;;;0.00;0.00;;;3.70;99.90;;;;;;5026460;28;20117;-77
2023/03/05 03:16:15;;;;;;;0.00;0.00;;;3.70;99.90;;;;;;5026422;28;20069;-76
2023/03/05 03:18:52;;;;;;;0.00;0.00;;;3.70;99.90;;;;;;5027607;28;20955;-77
2023/03/05 03:21:24;;;;;;;0.00;0.00;;;3.80;99.90;;;;;;5020888;28;20096;-78
2023/03/05 03:23:51;;;;;;;0.75;0.75;;;3.80;99.90;;;;;;5026938;28;20024;-76
2023/03/05 03:26:17;;;;;;;0.00;0.00;;;3.80;99.90;;;;;;5022383;28;20032;-76
2023/03/05 03:28:43;;;;;;;0.05;0.05;;;3.80;99.90;;;;;;5022080;28;20030;-77
2023/03/05 03:31:16;;;;;;;0.00;0.00;;;3.80;99.90;;;;;;5025893;28;20028;-76
2023/03/05 03:33:49;;;;;;;0.00;0.00;;;3.80;99.90;;;;;;5022474;28;20033;-76
2023/03/05 03:36:15;;;;;;;0.00;0.00;;;3.80;99.90;;;;;;5020621;28;20055;-77
2023/03/05 03:38:41;;;;;;;0.00;0.00;;;3.80;99.90;;;;;;5026554;28;20061;-76
2023/03/05 03:41:12;;;;;;;0.00;0.00;;;3.80;99.90;;;;;;5025418;28;20018;-77
2023/03/05 03:43:38;;;;;;;0.00;0.00;;;3.80;99.90;;;;;;5032336;28;20535;-76
2023/03/05 03:46:06;;;;;;;0.00;0.00;;;3.80;99.90;;;;;;5026208;28;20772;-77
2023/03/05 03:48:32;;;;;;;0.00;0.00;;;3.90;99.90;;;;;;5020996;28;20033;-77
2023/03/05 03:51:03;;;;;;;0.00;0.00;;;3.80;99.90;;;;;;5026357;28;20043;-76
2023/03/05 03:53:34;;;;;;;0.00;0.00;;;3.80;99.90;;;;;;5027626;28;20267;-76
2023/03/05 03:56:03;;;;;;;0.00;0.00;;;3.80;99.90;;;;;;5022502;28;20021;-76
2023/03/05 03:58:29;;;;;;;0.00;0.00;;;3.80;99.90;;;;;;5021992;28;20064;-77
2023/03/05 04:00:57;;;;;;;0.00;0.00;;;3.80;99.90;;;;;;5029988;28;20041;-76
2023/03/05 04:03:22;;;;;;;0.32;0.32;;;3.70;99.90;;;;;;5028908;28;20040;-77
2023/03/05 04:05:49;;;;;;;0.00;0.00;;;3.70;99.90;;;;;;5022795;28;20478;-77
2023/03/05 04:08:17;;;;;;;0.00;0.00;;;3.70;99.90;;;;;;5025982;28;20035;-77
2023/03/05 04:10:47;;;;;;;0.00;0.00;;;3.60;99.90;;;;;;5020304;28;20060;-77
2023/03/05 04:13:15;;;;;;;0.00;0.00;;;3.70;99.90;;;;;;5024026;28;21003;-77
2023/03/05 04:15:43;;;;;;;0.00;0.00;;;3.60;99.90;;;;;;5022832;28;20452;-77
2023/03/05 04:18:10;;;;;;;0.00;0.00;;;3.60;99.90;;;;;;5026753;28;20514;-76
2023/03/05 04:20:45;;;;;;;0.00;0.00;;;3.70;99.90;;;;;;5021681;28;20026;-77
2023/03/05 04:23:17;;;;;;;0.00;0.00;;;3.70;99.90;;;;;;5023060;28;20026;-77
2023/03/05 04:25:43;;;;;;;0.00;0.00;;;3.70;99.90;;;;;;5024465;28;20025;-77
2023/03/05 04:28:09;;;;;;;0.00;0.00;;;3.70;99.90;;;;;;5021188;28;20140;-77
2023/03/05 04:30:34;;;;;;;0.00;0.00;;;3.60;99.90;;;;;;5021820;28;20270;-76
2023/03/05 04:33:00;;;;;;;0.00;0.00;;;3.70;99.90;;;;;;5017551;28;20378;-77
2023/03/05 04:35:27;;;;;;;0.00;0.00;;;3.60;99.90;;;;;;5018640;28;20026;-77
2023/03/05 04:37:54;;;;;;;0.00;0.00;;;3.60;99.90;;;;;;5024525;28;20557;-77
2023/03/05 04:40:19;;;;;;;0.10;0.10;;;3.70;99.90;;;;;;5020541;28;20076;-78
2023/03/05 04:42:47;;;;;;;0.00;0.00;;;3.70;99.90;;;;;;5029724;28;20578;-76
2023/03/05 04:45:16;;;;;;;0.10;0.10;;;3.60;99.90;;;;;;5022304;28;20807;-76
2023/03/05 04:47:42;;;;;;;0.00;0.00;;;3.60;99.90;;;;;;5028592;28;20360;-77
2023/03/05 04:50:08;;;;;;;;;;;3.70;99.90;;;;;;5021498;28;20044;-78
2023/03/05 04:52:40;;;;;;;0.43;0.20;;;3.60;99.90;;;;;;5023609;28;20346;-76
2023/03/05 04:55:06;;;;;;;0.00;0.00;;;3.60;99.90;;;;;;5019541;28;20029;-76
2023/03/05 04:57:32;;;;;;;0.00;0.00;;;3.60;99.90;;;;;;5025764;28;20017;-76
2023/03/05 04:59:58;;;;;;;0.30;0.30;;;3.60;99.90;;;;;;5024654;28;20230;-76
2023/03/05 05:02:23;;;;;;;0.10;0.10;;;3.60;99.90;;;;;;5021156;28;20025;-77
2023/03/05 05:04:58;;;;;;;0.00;0.00;;;3.60;99.90;;;;;;5023836;28;20255;-77
2023/03/05 05:07:35;;;;;;;0.00;0.00;;;3.60;99.90;;;;;;5019459;28;20032;-76
2023/03/05 05:10:06;;;;;;;0.00;0.00;;;3.60;99.90;;;;;;5017891;28;20017;-76
2023/03/05 05:12:35;;;;;;;0.00;0.00;;;3.60;99.90;;;;;;5021366;28;20043;-76
2023/03/05 05:15:08;;;;;;;0.00;0.00;;;3.60;99.90;;;;;;5020312;28;20140;-77
2023/03/05 05:17:35;;;;;;;0.00;0.00;;;3.60;99.90;;;;;;5026590;28;20029;-76
2023/03/05 05:20:06;;;;;;;;;;;3.60;99.90;;;;;;5023570;28;20387;-77
2023/03/05 05:22:34;;;;;;;0.00;0.00;;;3.60;99.90;;;;;;5026025;28;19909;-77
2023/03/05 05:25:03;;;;;;;0.00;0.00;;;3.60;99.90;;;;;;5022989;28;20379;-76
2023/03/05 05:27:36;;;;;;;0.00;0.00;;;3.60;99.90;;;;;;5020609;28;20013;-76
2023/03/05 05:30:06;;;;;;;0.00;0.00;;;3.60;99.90;;;;;;5022729;28;20066;-76
2023/03/05 05:32:34;;;;;;;0.00;0.00;;;3.60;99.90;;;;;;5028603;28;20094;-77
2023/03/05 05:35:04;;;;;;;0.00;0.00;;;3.60;99.90;;;;;;5020228;28;20057;-76
2023/03/05 05:37:30;;;;;;;0.00;0.00;;;3.60;99.90;;;;;;5019278;28;20017;-78
2023/03/05 05:39:56;;;;;;;0.00;0.00;;;3.60;99.90;;;;;;5029193;28;20091;-77
2023/03/05 05:42:23;;;;;;;;;;;3.60;99.90;;;;;;5021598;28;20121;-77
2023/03/05 05:44:51;;;;;;;0.00;0.00;;;3.60;99.90;;;;;;5020963;28;19924;-77
2023/03/05 05:47:17;;;;;;;0.00;0.00;;;3.70;99.90;;;;;;5021749;28;20017;-76
2023/03/05 05:49:43;;;;;;;0.00;0.00;;;3.80;99.90;;;;;;5020229;28;20068;-76
2023/03/05 05:52:16;;;;;;;0.00;0.00;;;3.70;99.90;;;;;;5023639;28;20072;-76
2023/03/05 05:54:44;;;;;;;4.18;0.43;;;3.70;99.90;;;;;;5021603;28;20152;-77
2023/03/05 05:57:11;;;;;;;0.00;0.00;;;3.70;99.90;;;;;;5023343;28;20045;-76
2023/03/05 05:59:38;;;;;;;0.30;0.30;;;3.80;99.90;;;;;;5022463;28;20032;-76
2023/03/05 06:02:06;;;;;;;0.00;0.00;;;3.80;99.90;;;;;;5025425;28;20414;-76
2023/03/05 06:04:35;;;;;;;0.00;0.00;;;3.70;99.90;;;;;;5023065;28;20095;-76
2023/03/05 06:07:02;;;;;;;0.00;0.00;;;3.80;99.90;;;;;;5025220;28;20653;-77
2023/03/05 06:09:28;;;;;;;0.00;0.00;;;3.80;99.90;;;;;;5022946;28;20024;-77
2023/03/05 06:11:56;;;;;;;;;;;3.80;99.90;;;;;;5024644;28;20100;-76
2023/03/05 06:14:23;;;;;;;0.00;0.00;;;3.80;99.90;;;;;;5023647;28;19905;-77
2023/03/05 06:16:49;;;;;;;0.00;0.00;;;3.80;99.90;;;;;;5022357;28;20041;-76
2023/03/05 06:19:15;;;;;;;0.00;0.00;;;3.80;99.90;;;;;;5024544;28;20013;-77
2023/03/05 06:21:43;;;;;;;0.00;0.00;;;3.80;99.90;;;;;;5021244;28;20097;-77
2023/03/05 06:24:11;;;;;;;0.00;0.00;;;3.80;99.90;;;;;;5031578;28;20826;-77
2023/03/05 06:26:42;;;;;;;0.00;0.00;;;3.90;99.90;;;;;;5023813;28;20487;-76
2023/03/05 06:29:11;;;;;;;0.00;0.00;;;3.90;99.90;;;;;;5029372;28;20024;-76
2023/03/05 06:31:40;;;;;;;0.68;0.47;;;3.90;99.90;;;;;;5024533;28;20762;-77
2023/03/05 06:34:06;;;;;;;0.00;0.00;;;3.80;99.90;;;;;;5022895;28;20020;-76
2023/03/05 06:36:43;;;;;;;0.00;0.00;;;3.90;99.90;;;;;;5025884;28;20077;-77
2023/03/05 06:39:09;;;;;;;0.00;0.00;;;4.00;99.90;;;;;;5023721;28;20009;-77
2023/03/05 06:41:35;;;;;;;0.00;0.00;;;4.00;99.90;;;;;;5025056;28;20179;-76
2023/03/05 06:44:11;;;;;;;0.00;0.00;;;4.10;99.90;;;;;;5029158;28;20066;-76
2023/03/05 06:46:38;;;;;;;0.00;0.00;;;4.10;99.90;;;;;;5031392;28;20036;-77
2023/03/05 06:49:05;;;;;;;0.00;0.00;;;4.10;99.90;;;;;;5025490;28;20024;-77
2023/03/05 06:51:38;;;;;;;0.00;0.00;;;4.20;99.90;;;;;;5023805;28;20074;-76
2023/03/05 06:54:12;;;;;;;0.00;0.00;;;4.20;99.90;;;;;;5022784;28;20035;-77
2023/03/05 06:56:41;;;;;;;0.00;0.00;;;4.20;99.90;;;;;;5025743;28;20028;-77
2023/03/05 06:59:26;;;;;;;0.10;0.10;;;4.20;99.90;;;;;;5029703;28;20071;-77
2023/03/05 07:01:52;;;;;;;0.00;0.00;;;4.20;99.90;;;;;;5032050;28;20021;-77
2023/03/05 07:04:19;;;;;;;0.00;0.00;;;4.30;99.90;;;;;;5027896;28;20071;-77
2023/03/05 07:06:47;;;;;;;0.00;0.00;;;4.50;99.90;;;;;;5026426;28;20103;-76
2023/03/05 07:09:15;;;;;;;0.00;0.00;;;4.40;99.90;;;;;;5022246;28;20935;-76
2023/03/05 07:11:42;;;;;;;0.00;0.00;;;4.40;99.90;;;;;;5022246;28;20041;-77
2023/03/05 07:14:08;;;;;;;0.90;0.90;;;4.40;99.90;;;;;;5026439;28;20048;-77
2023/03/05 07:16:36;;;;;;;0.00;0.00;;;4.50;99.90;;;;;;5023008;28;20017;-77
2023/03/05 07:19:04;;;;;;;0.00;0.00;;;4.60;99.90;;;;;;5024344;28;20036;-76
2023/03/05 07:21:33;;;;;;;0.00;0.00;;;4.60;99.90;;;;;;5022101;28;20026;-76
2023/03/05 07:24:05;;;;;;;0.00;0.00;;;4.70;99.90;;;;;;5023141;28;20653;-76
2023/03/05 07:26:34;;;;;;;0.00;0.00;;;4.70;99.90;;;;;;5019569;28;20026;-76
2023/03/05 07:29:00;;;;;;;0.00;0.00;;;4.80;99.90;;;;;;5028702;28;20049;-76
2023/03/05 07:31:30;;;;;;;0.00;0.00;;;4.80;99.90;;;;;;5031190;28;20116;-77
2023/03/05 07:34:00;;;;;;;0.00;0.00;;;4.80;99.90;;;;;;5023128;28;20025;-76
2023/03/05 07:36:27;;;;;;;0.00;0.00;;;4.90;99.90;;;;;;5028008;28;20122;-76
2023/03/05 07:38:54;;;;;;;0.00;0.00;;;4.90;99.90;;;;;;5021402;28;20021;-77
2023/03/05 07:41:27;;;;;;;;;;;5.00;99.90;;;;;;5017575;28;20021;-77
2023/03/05 07:44:03;;;;;;;0.00;0.00;;;5.00;99.90;;;;;;5027051;28;19912;-76
2023/03/05 07:46:33;;;;;;;0.10;0.10;;;5.00;99.90;;;;;;5020190;28;20028;-76
2023/03/05 07:49:05;;;;;;;0.00;0.00;;;5.10;99.90;;;;;;5020502;28;20045;-77
2023/03/05 07:51:32;;;;;;;0.00;0.00;;;5.20;99.90;;;;;;5020235;28;20040;-76
2023/03/05 07:54:00;;;;;;;;;;;5.20;99.90;;;;;;5018609;28;20044;-76
2023/03/05 07:56:35;;;;;;;0.00;0.00;;;5.30;99.90;;;;;;5027391;28;19913;-76
2023/03/05 07:59:05;;;;;;;0.00;0.00;;;5.30;99.90;;;;;;5025018;28;20047;-77
2023/03/05 08:01:32;;;;;;;0.00;0.00;;;5.30;99.90;;;;;;5025577;28;20036;-76
2023/03/05 08:04:00;;;;;;;0.00;0.00;;;5.40;99.90;;;;;;5026304;28;20017;-76
2023/03/05 08:06:32;;;;;;;0.00;0.00;;;5.40;99.90;;;;;;5028747;28;20029;-75
2023/03/05 08:08:59;;;;;;;0.00;0.00;;;5.50;99.90;;;;;;5021129;28;20552;-75
2023/03/05 08:11:27;;;;;;;0.00;0.00;;;5.70;99.90;;;;;;5024915;28;20021;-75
2023/03/05 08:13:52;;;;;;;0.00;0.00;;;5.70;99.90;;;;;;5019513;28;20032;-74
2023/03/05 08:16:20;;;;;;;0.00;0.00;;;5.80;99.90;;;;;;5017522;28;20081;-80
2023/03/05 08:18:46;;;;;;;0.25;0.25;;;5.90;99.90;;;;;;5026207;28;20033;-74
2023/03/05 08:21:28;;;;;;;0.00;0.00;;;5.90;99.90;;;;;;5022447;28;20045;-73
2023/03/05 08:23:58;;;;;;;0.00;0.00;;;5.90;99.90;;;;;;5027471;28;20027;-73
2023/03/05 08:26:27;;;;;;;0.00;0.00;;;5.90;99.90;;;;;;5019305;28;20096;-74
2023/03/05 08:28:54;;;;;;;0.00;0.00;;;6.10;99.90;;;;;;5034203;28;20494;-74
2023/03/05 08:31:25;;;;;;;0.00;0.00;;;6.20;99.90;;;;;;5021376;28;20029;-74
2023/03/05 08:33:53;;;;;;;0.00;0.00;;;6.30;99.90;;;;;;5020356;28;20034;-74
2023/03/05 08:36:19;;;;;;;0.00;0.00;;;6.40;99.90;;;;;;5024457;28;21479;-74
2023/03/05 08:38:47;;;;;;;0.00;0.00;;;6.40;99.90;;;;;;5026129;28;20040;-74
2023/03/05 08:41:17;;;;;;;0.00;0.00;;;6.40;99.90;;;;;;5019967;28;20709;-75
2023/03/05 08:43:44;;;;;;;0.00;0.00;;;6.50;99.90;;;;;;5022735;28;20543;-74
2023/03/05 08:46:13;;;;;;;;;;;6.60;99.90;;;;;;5024019;28;20026;-74
2023/03/05 08:48:41;;;;;;;0.00;0.00;;;6.90;99.90;;;;;;5021581;28;20301;-74
2023/03/05 08:51:08;;;;;;;0.00;0.00;;;7.20;99.90;;;;;;5021058;28;20052;-74
2023/03/05 08:53:35;;;;;;;0.00;0.00;;;7.10;99.90;;;;;;5021431;28;20021;-73
2023/03/05 08:56:03;;;;;;;;;;;7.10;99.90;;;;;;5021184;28;20021;-76
2023/03/05 08:58:34;;;;;;;0.00;0.00;;;7.10;99.90;;;;;;5024261;28;20338;-75
2023/03/05 09:01:03;;;;;;;0.00;0.00;;;7.00;99.90;;;;;;5021374;28;20408;-75
2023/03/05 09:03:28;;;;;;;0.00;0.00;;;7.30;99.90;;;;;;5016164;28;20021;-75
2023/03/05 09:06:00;;;;;;;0.00;0.00;;;7.40;99.90;;;;;;5026097;28;20021;-74
2023/03/05 09:08:27;;;;;;;0.00;0.00;;;7.70;99.90;;;;;;5020115;28;20029;-74
2023/03/05 09:10:57;;;;;;;0.00;0.00;;;8.20;99.90;;;;;;5019007;28;20644;-73
2023/03/05 09:13:24;;;;;;;0.00;0.00;;;8.70;99.90;;;;;;5026562;28;20104;-74
2023/03/05 09:16:01;;;;;;;0.00;0.00;;;9.40;99.10;;;;;;5023615;28;20025;-74
2023/03/05 09:18:28;;;;;;;0.00;0.00;;;9.70;97.60;;;;;;5016615;28;20610;-74
2023/03/05 09:20:54;;;;;;;0.00;0.00;;;9.90;97.30;;;;;;5022182;28;20087;-74
2023/03/05 09:23:23;;;;;;;0.00;0.00;;;10.80;95.50;;;;;;5018336;28;20033;-75
2023/03/05 09:25:51;;;;;;;0.00;0.00;;;11.30;92.30;;;;;;5022395;28;20109;-75
2023/03/05 09:28:18;;;;;;;0.00;0.00;;;10.60;91.90;;;;;;5025026;28;20040;-75
2023/03/05 09:30:43;;;;;;;;;;;9.90;93.00;;;;;;5027554;28;20032;-74
2023/03/05 09:33:10;;;;;;;0.00;0.00;;;9.50;95.00;;;;;;5029902;28;19904;-74
2023/03/05 09:35:36;;;;;;;0.00;0.00;;;9.10;95.70;;;;;;5025061;28;20516;-74
2023/03/05 09:38:04;;;;;;;0.00;0.00;;;9.20;96.30;;;;;;5028251;28;20104;-73
2023/03/05 09:41:06;;;;;;;0.08;0.08;;;9.40;96.30;;;;;;5024863;28;20340;-75
2023/03/05 09:43:52;;;;;;;0.00;0.00;;;9.30;95.90;;;;;;5027801;28;20014;-73
2023/03/05 09:46:47;;;;;;;0.00;0.00;;;9.60;95.70;;;;;;5024491;28;20024;-74
2023/03/05 09:49:55;;;;;;;0.05;0.05;;;9.80;94.90;;;;;;5023491;28;21462;-74
2023/03/05 09:52:46;;;;;;;0.00;0.00;;;10.00;94.70;;;;;;5027135;28;20037;-74
2023/03/05 09:55:39;;;;;;;0.38;0.38;;;10.10;93.80;;;;;;5031066;28;20036;-74
2023/03/05 09:58:32;;;;;;;0.00;0.00;;;10.00;93.70;;;;;;5018648;28;20025;-74
2023/03/05 10:01:20;;;;;;;0.00;0.00;;;9.90;94.30;;;;;;5037696;28;20756;-75
2023/03/05 10:04:11;;;;;;;0.00;0.00;;;11.00;93.80;;;;;;5025582;28;20582;-74
2023/03/05 10:06:54;;;;;;;0.20;0.20;;;12.90;88.20;;;;;;5027781;28;20033;-74
2023/03/05 10:09:38;;;;;;;0.00;0.00;;;13.40;79.50;;;;;;5026052;28;20039;-74
2023/03/05 10:12:41;;;;;;;0.00;0.00;;;14.20;75.40;;;;;;5022742;28;20091;-75
2023/03/05 10:15:25;;;;;;;0.00;0.00;;;15.30;70.00;;;;;;5021251;28;20103;-74
2023/03/05 10:18:03;;;;;;;0.15;0.15;;;14.70;68.10;;;;;;5022109;28;21015;-74
2023/03/05 10:20:55;;;;;;;0.00;0.00;;;13.40;68.70;;;;;;5020102;28;20045;-74
2023/03/05 10:23:23;;;;;;;0.00;0.00;;;12.70;71.60;;;;;;5026086;28;20029;-74
2023/03/05 10:26:02;;;;;;;0.00;0.00;;;11.80;74.40;;;;;;5022840;28;20035;-74
2023/03/05 10:29:02;;;;;;;0.10;0.10;;;11.60;77.00;;;;;;5025163;28;20111;-74
2023/03/05 10:31:37;;;;;;;0.00;0.00;;;11.70;78.20;;;;;;5022057;28;20096;-74
2023/03/05 10:34:42;;;;;;;0.00;0.00;;;11.70;77.70;;;;;;5021106;28;20029;-75
2023/03/05 10:37:26;;;;;;;0.17;0.17;;;11.80;77.00;;;;;;5018660;28;20052;-74
2023/03/05 10:40:00;;;;;;;0.00;0.00;;;12.10;76.90;;;;;;5020699;28;20494;-75
2023/03/05 10:42:47;;;;;;;0.00;0.00;;;12.80;74.50;;;;;;5018089;28;20029;-75
2023/03/05 10:45:37;;;;;;;0.00;0.00;;;13.60;72.20;;;;;;5020317;28;20087;-74
2023/03/05 10:48:11;;;;;;;0.00;0.00;;;13.20;70.20;;;;;;5018993;28;20036;-74
2023/03/05 10:50:47;;;;;;;0.47;0.30;;;12.70;71.40;;;;;;5023040;28;20499;-74
2023/03/05 10:53:47;;;;;;;0.00;0.00;;;12.10;72.60;;;;;;5023382;28;20034;-75
2023/03/05 10:56:14;;;;;;;0.00;0.00;;;12.70;71.20;;;;;;5022024;28;20033;-75
2023/03/05 10:58:40;;;;;;;0.00;0.00;;;13.10;70.40;;;;;;5021335;28;20032;-74
2023/03/05 11:01:09;;;;;;;0.00;0.00;;;13.30;69.60;;;;;;5025648;28;20026;-74
2023/03/05 11:03:50;;;;;;;0.00;0.00;;;13.50;69.40;;;;;;5027809;28;20021;-73
2023/03/05 11:06:28;;;;;;;0.00;0.00;;;13.70;67.60;;;;;;5023055;28;20702;-74
2023/03/05 11:08:54;;;;;;;0.15;0.15;;;13.60;68.10;;;;;;5018211;28;21570;-73
2023/03/05 11:11:22;;;;;;;0.10;0.10;;;13.30;67.90;;;;;;5026665;28;20115;-74
2023/03/05 11:13:59;;;;;;;0.13;0.13;;;13.20;68.50;;;;;;5020064;28;20076;-74
2023/03/05 11:16:44;;;;;;;0.00;0.00;;;13.10;68.30;;;;;;5025780;28;20404;-74
2023/03/05 11:19:16;;;;;;;0.00;0.00;;;12.60;69.50;;;;;;5025689;28;20112;-75
2023/03/05 11:21:45;;;;;;;0.00;0.00;;;12.00;70.80;;;;;;5024110;28;20753;-74
2023/03/05 11:24:14;;;;;;;0.00;0.00;;;11.30;72.90;;;;;;5019927;28;20025;-74
2023/03/05 11:26:52;;;;;;;0.40;0.40;;;11.10;73.70;;;;;;5026917;28;20079;-74
2023/03/05 11:29:32;;;;;;;0.00;0.00;;;10.70;75.50;;;;;;5024188;28;20104;-75
2023/03/05 11:32:25;;;;;;;0.00;0.00;;;10.60;76.40;;;;;;5021414;28;20018;-75
2023/03/05 11:34:52;;;;;;;0.00;0.00;;;10.60;77.10;;;;;;5024071;28;20045;-75
2023/03/05 11:37:37;;;;;;;0.00;0.00;;;10.40;78.50;;;;;;5024603;28;20025;-74
2023/03/05 11:40:23;;;;;;;0.00;0.00;;;10.10;79.80;;;;;;5020072;28;20128;-74
2023/03/05 11:42:57;;;;;;;0.00;0.00;;;9.80;80.90;;;;;;5026722;28;20017;-75
2023/03/05 11:45:30;;;;;;;0.00;0.00;;;9.60;81.70;;;;;;5023082;28;20028;-75
2023/03/05 11:48:40;;;;;;;0.00;0.00;;;9.50;83.40;;;;;;5022635;28;20088;-74
2023/03/05 11:51:14;;;;;;;0.00;0.00;;;9.40;84.30;;;;;;4981774;28;20029;-74
2023/03/05 11:53:43;;;;;;;0.00;0.00;;;9.30;84.80;;;;;;5021197;28;20061;-74
2023/03/05 11:56:18;;;;;;;0.00;0.00;;;8.90;86.00;;;;;;5023355;28;20463;-74
2023/03/05 11:59:00;;;;;;;0.00;0.00;;;8.60;88.30;;;;;;5022590;28;20036;-74
2023/03/05 12:01:31;;;;;;;0.00;0.00;;;8.50;90.30;;;;;;5022285;28;20022;-74
2023/03/05 12:03:59;;;;;;;0.00;0.00;;;8.20;91.00;;;;;;5022079;28;20581;-75
2023/03/05 12:06:35;;;;;;;0.00;0.00;;;8.10;92.00;;;;;;5031025;28;20020;-74
2023/03/05 12:09:42;;;;;;;0.00;0.00;;;8.10;92.90;;;;;;5019693;28;20021;-74
2023/03/05 12:12:34;;;;;;;0.00;0.00;;;8.00;93.80;;;;;;5020155;28;20010;-74
2023/03/05 12:15:03;;;;;;;0.00;0.00;;;7.80;94.40;;;;;;5015126;28;20021;-74
2023/03/05 12:17:50;;;;;;;0.00;0.00;;;7.70;95.80;;;;;;5020624;28;20745;-73
2023/03/05 12:20:21;;;;;;;0.00;0.00;;;7.50;96.30;;;;;;5016641;28;20029;-74
2023/03/05 12:22:47;;;;;;;0.00;0.00;;;7.50;97.10;;;;;;5021462;28;20336;-74
2023/03/05 12:25:43;;;;;;;0.00;0.00;;;7.50;97.10;;;;;;5021168;28;21548;-73
2023/03/05 12:28:15;;;;;;;0.00;0.00;;;7.40;97.50;;;;;;5026978;28;20042;-72
2023/03/05 12:30:41;;;;;;;0.00;0.00;;;7.30;97.60;;;;;;5023443;28;20036;-72
2023/03/05 12:33:28;;;;;;;0.00;0.00;;;7.20;97.90;;;;;;5024868;28;20017;-72
2023/03/05 12:36:18;;;;;;;0.00;0.00;;;7.00;98.30;;;;;;5018283;28;20461;-72
2023/03/05 12:38:56;;;;;;;0.00;0.00;;;7.00;98.90;;;;;;5022166;28;20060;-72
2023/03/05 12:41:22;;;;;;;0.00;0.00;;;7.10;99.00;;;;;;5016582;28;20028;-72
2023/03/05 12:44:06;;;;;;;0.00;0.00;;;7.00;99.00;;;;;;5025357;28;20021;-73
2023/03/05 12:46:43;;;;;;;0.00;0.00;;;7.00;99.20;;;;;;5028192;28;20292;-73
2023/03/05 12:49:18;;;;;;;0.00;0.00;;;7.10;99.90;;;;;;5026157;28;20025;-73
2023/03/05 12:51:46;;;;;;;0.00;0.00;;;7.00;99.90;;;;;;5015505;28;20094;-73
2023/03/05 12:54:32;;;;;;;0.00;0.00;;;7.00;99.60;;;;;;5021132;28;20025;-73
2023/03/05 12:57:05;;;;;;;0.00;0.00;;;6.90;98.90;;;;;;5013894;28;20626;-73
2023/03/05 13:00:07;;;;;;;0.00;0.00;;;6.90;98.60;;;;;;5023596;28;20017;-74
2023/03/05 13:02:44;;;;;;;0.00;0.00;;;6.80;98.50;;;;;;5001188;28;20033;-73
2023/03/05 13:05:20;;;;;;;;;;;6.70;98.20;;;;;;5028878;28;20033;-73
2023/03/05 13:07:48;;;;;;;0.00;0.00;;;6.60;97.70;;;;;;5017037;28;19905;-73
2023/03/05 13:10:26;;;;;;;0.00;0.00;;;6.40;97.70;;;;;;5017500;28;20055;-73
2023/03/05 13:12:54;;;;;;;0.00;0.00;;;6.40;98.00;;;;;;5020078;28;20694;-73
2023/03/05 13:15:22;;;;;;;0.00;0.00;;;6.40;97.70;;;;;;5021859;28;20033;-74
2023/03/05 13:17:51;;;;;;;0.00;0.00;;;6.30;97.50;;;;;;5023238;28;20488;-73
2023/03/05 13:20:39;;;;;;;0.00;0.00;;;6.20;97.50;;;;;;5025249;28;20022;-73
2023/03/05 13:23:19;;;;;;;0.00;0.00;;;6.20;97.90;;;;;;5024374;28;20713;-73
2023/03/05 13:25:57;;;;;;;0.00;0.00;;;6.00;98.00;;;;;;5023291;28;20032;-73
2023/03/05 13:28:23;;;;;;;0.00;0.00;;;6.00;98.20;;;;;;5016343;28;20542;-73